Time;durP1;ratioP1;P1;durP2;ratioP2;P2;SDS_P1;SDS_P2;PMS_P1;PMS_P2;Temp;Humidity;BMP_temperature;BMP_pressure;BME280_temperature;BME280_humidity;BME280_pressure;Samples;Min_cycle;Max_cycle;Signal;HPM_P1;HPM_P2
2021/05/05 06:35:32;;;;;;;3.12;1.82;;;;;;;13.27;41.57;97202.81;1858564;75;22697;-65
2021/05/05 06:38:04;;;;;;;5.60;2.10;;;;;;;13.34;41.29;97205.78;1812107;79;21004;-65
2021/05/05 06:40:32;;;;;;;4.53;2.05;;;;;;;13.50;40.63;97200.59;1803786;79;21414;-66
2021/05/05 06:43:01;;;;;;;5.40;2.20;;;;;;;13.65;39.86;97198.13;1820296;77;20995;-66
2021/05/05 06:45:34;;;;;;;6.92;3.22;;;;;;;13.80;40.22;97186.53;1823278;77;20999;-65
2021/05/05 06:48:05;;;;;;;8.50;2.30;;;;;;;13.93;39.61;97198.91;1822125;78;20927;-64
2021/05/05 06:50:33;;;;;;;5.37;1.87;;;;;;;14.09;39.40;97187.75;1822228;78;20978;-65
2021/05/05 06:53:01;;;;;;;4.47;1.92;;;;;;;14.22;38.78;97174.56;1822151;78;21201;-64
2021/05/05 06:55:32;;;;;;;9.25;2.10;;;;;;;14.36;38.34;97175.08;1822195;78;20978;-64
2021/05/05 06:58:01;;;;;;;3.77;2.15;;;;;;;14.47;36.80;97172.72;1814256;77;21016;-62
2021/05/05 09:48:34;;;;;;;4.58;1.50;;;;;;;19.37;28.36;97029.89;1847378;76;22664;-65
2021/05/05 09:51:03;;;;;;;3.08;1.60;;;;;;;19.36;30.13;97047.34;1813041;78;21465;-64
2021/05/05 09:53:32;;;;;;;3.55;1.27;;;;;;;19.48;28.37;97021.28;1818074;78;21380;-62
2021/05/05 09:56:08;;;;;;;5.42;1.60;;;;;;;19.60;26.47;97030.54;1811824;79;20920;-62
2021/05/05 09:58:44;;;;;;;2.67;1.80;;;;;;;19.66;27.50;97020.92;1749663;82;20947;-65
2021/05/05 10:01:20;;;;;;;1.75;1.50;;;;;;;19.76;28.04;97003.93;1749309;82;21660;-65
2021/05/05 10:03:55;;;;;;;2.22;1.40;;;;;;;19.90;28.38;97007.39;1761812;81;21549;-64
2021/05/05 10:06:32;;;;;;;2.50;1.57;;;;;;;19.93;27.40;96999.25;1816312;79;21133;-64
2021/05/05 10:09:12;;;;;;;3.30;1.40;;;;;;;19.90;27.57;97001.38;1747056;82;21553;-61
2021/05/05 10:11:43;;;;;;;4.40;1.60;;;;;;;19.79;27.89;96999.91;1749008;82;21034;-61
2021/05/05 10:14:16;;;;;;;3.85;1.60;;;;;;;19.71;28.25;97005.66;1748740;82;21177;-65
2021/05/05 10:16:48;;;;;;;5.50;1.57;;;;;;;19.75;28.61;96998.31;1748959;82;21185;-65
2021/05/05 10:19:24;;;;;;;5.35;1.30;;;;;;;19.90;28.10;96991.88;1743781;81;21266;-63
2021/05/05 10:22:01;;;;;;;7.08;1.67;;;;;;;20.07;27.80;96996.66;1787168;80;21168;-64
2021/05/05 10:24:47;;;;;;;4.65;1.70;;;;;;;20.23;27.55;96980.90;1788082;80;21033;-62
2021/05/05 10:27:27;;;;;;;3.62;1.85;;;;;;;20.31;28.61;96987.97;1738209;80;21218;-65
2021/05/05 10:29:57;;;;;;;3.33;1.52;;;;;;;20.38;26.83;96977.14;1788720;80;21509;-65
2021/05/05 10:32:31;;;;;;;5.37;1.80;;;;;;;20.40;26.18;96987.63;1734140;80;21559;-65
2021/05/05 10:34:58;;;;;;;6.42;1.42;;;;;;;20.42;25.72;96987.45;1790882;79;21576;-66
2021/05/05 10:37:47;;;;;;;3.62;1.30;;;;;;;20.40;26.37;96987.63;1798844;79;21238;-63
2021/05/05 10:40:24;;;;;;;4.28;1.50;;;;;;;20.43;26.59;96989.03;1780909;80;21196;-65
2021/05/05 10:43:06;;;;;;;2.10;1.20;;;;;;;20.45;25.82;96980.48;1878048;76;22287;-65
2021/05/05 10:45:45;;;;;;;5.53;1.57;;;;;;;20.26;25.89;96982.87;1852360;77;21137;-66
2021/05/05 10:48:13;;;;;;;3.20;1.77;;;;;;;20.18;26.29;96977.16;1852158;77;21450;-67
2021/05/05 10:50:55;;;;;;;6.35;1.92;;;;;;;20.22;26.22;96972.56;1852322;77;20891;-67
2021/05/05 10:53:28;;;;;;;4.30;1.82;;;;;;;20.27;25.46;96960.55;1852504;77;20962;-66
2021/05/05 10:55:59;;;;;;;6.72;1.50;;;;;;;20.32;25.65;96965.06;1852255;77;20981;-65
2021/05/05 10:58:32;;;;;;;3.08;1.42;;;;;;;20.38;25.92;96970.91;1852533;77;20993;-65
2021/05/05 11:01:07;;;;;;;2.58;1.20;;;;;;;20.30;25.80;96971.44;1840415;77;21419;-64
2021/05/05 11:03:50;;;;;;;2.15;1.60;;;;;;;20.21;26.31;96958.72;1843981;77;21034;-64
2021/05/05 11:06:39;;;;;;;7.35;1.70;;;;;;;20.13;25.86;96958.48;1844212;77;20994;-63
2021/05/05 11:09:16;;;;;;;9.90;2.05;;;;;;;20.02;26.03;96958.95;1844859;77;20994;-66
2021/05/05 11:11:52;;;;;;;7.87;2.25;;;;;;;20.00;26.73;96956.41;1845795;77;21034;-60
2021/05/05 11:14:32;;;;;;;2.60;1.42;;;;;;;20.05;26.82;96948.70;1813034;77;21332;-65
2021/05/05 11:17:03;;;;;;;8.38;1.65;;;;;;;20.19;27.22;96959.68;1805258;78;21031;-66
2021/05/05 11:19:43;;;;;;;4.95;2.10;;;;;;;20.33;26.52;96948.94;1768886;81;21219;-66
2021/05/05 11:22:34;;;;;;;4.53;1.60;;;;;;;20.51;27.29;96946.92;1738017;82;21193;-66
2021/05/05 11:25:24;;;;;;;6.60;1.50;;;;;;;20.77;25.99;96943.97;1738415;82;21181;-66
2021/05/05 11:27:54;;;;;;;2.30;1.60;;;;;;;20.95;25.90;96944.25;1746188;79;22002;-66
2021/05/05 11:30:33;;;;;;;4.80;1.72;;;;;;;21.14;25.51;96948.62;1781640;80;21040;-64
2021/05/05 11:33:02;;;;;;;3.70;1.70;;;;;;;21.19;25.42;96945.53;1800400;79;20932;-66
2021/05/05 11:35:32;;;;;;;6.47;1.30;;;;;;;21.12;25.63;96934.63;1812668;79;20917;-65
2021/05/05 11:38:09;;;;;;;2.20;1.20;;;;;;;21.05;25.11;96941.40;1793570;77;20940;-63
2021/05/05 11:40:39;;;;;;;2.42;1.42;;;;;;;20.99;25.22;96934.14;1795622;79;21391;-64
2021/05/05 11:43:20;;;;;;;2.65;1.32;;;;;;;21.00;25.35;96928.13;1804666;78;20997;-67
2021/05/05 11:45:53;;;;;;;4.58;1.30;;;;;;;21.13;25.72;96923.91;1801251;79;20936;-66
2021/05/05 11:48:28;;;;;;;4.92;1.42;;;;;;;21.35;25.62;96924.19;1788560;79;20944;-67
2021/05/05 11:50:57;;;;;;;3.47;1.77;;;;;;;21.49;25.32;96918.77;1788031;80;21007;-64
2021/05/05 11:53:31;;;;;;;9.58;1.60;;;;;;;21.59;24.94;96915.30;1787656;80;21197;-66
2021/05/05 11:55:59;;;;;;;3.47;1.52;;;;;;;21.68;24.14;96919.77;1780152;80;21544;-64
2021/05/05 11:58:30;;;;;;;1.92;1.25;;;;;;;21.69;23.74;96928.13;1795889;77;21150;-65
2021/05/05 12:00:59;;;;;;;5.87;1.57;;;;;;;21.67;23.24;96920.92;1803234;79;20947;-69
2021/05/05 12:03:29;;;;;;;3.40;1.20;;;;;;;21.69;23.03;96919.95;1803440;79;21561;-65
2021/05/05 12:05:58;;;;;;;4.83;1.37;;;;;;;21.79;24.29;96913.73;1778179;79;22384;-65
2021/05/05 12:08:28;;;;;;;2.90;1.45;;;;;;;22.04;24.58;96904.82;1802387;79;21067;-65
2021/05/05 12:11:01;;;;;;;2.22;1.10;;;;;;;22.38;23.89;96897.75;1802054;79;20982;-63
2021/05/05 12:13:31;;;;;;;3.45;1.30;;;;;;;22.63;23.51;96899.89;1770352;81;21146;-66
2021/05/05 12:16:11;;;;;;;7.00;1.40;;;;;;;22.82;23.17;96891.83;1801974;79;21187;-62
2021/05/05 12:18:45;;;;;;;10.75;1.95;;;;;;;22.97;23.15;96884.53;1801726;79;21558;-65
2021/05/05 12:21:18;;;;;;;7.47;1.40;;;;;;;23.02;22.76;96890.95;1801923;79;21192;-66
2021/05/05 12:23:59;;;;;;;8.00;1.50;;;;;;;23.00;22.78;96891.94;1792990;78;21141;-63
2021/05/05 12:26:30;;;;;;;5.10;1.52;;;;;;;23.07;22.83;96888.39;1759921;81;21019;-64
2021/05/05 12:29:03;;;;;;;3.70;1.30;;;;;;;23.16;22.98;96884.64;1763978;81;20889;-65
2021/05/05 12:31:45;;;;;;;2.37;1.40;;;;;;;23.20;22.07;96888.73;1759628;81;21374;-63
2021/05/05 12:34:13;;;;;;;3.98;1.25;;;;;;;23.12;21.86;96876.48;1763945;81;20960;-66
2021/05/05 12:36:42;;;;;;;5.92;1.80;;;;;;;;;;1759799;81;20940;-66
2021/05/05 12:39:22;;;;;;;5.47;1.60;;;;;;;23.18;23.11;96869.20;1727544;80;20944;-64
2021/05/05 12:41:56;;;;;;;;;;;;;;;23.36;22.51;96857.05;1759579;80;21226;-65
2021/05/05 12:44:33;;;;;;;2.15;1.17;;;;;;;23.56;21.73;96855.34;1772402;80;21493;-65
2021/05/05 12:47:07;;;;;;;6.45;1.60;;;;;;;23.56;21.58;96857.29;1740746;80;21197;-65
2021/05/05 12:49:37;;;;;;;4.47;1.75;;;;;;;23.51;21.67;96843.47;1822916;78;21023;-65
2021/05/05 12:52:31;;;;;;;2.92;1.40;;;;;;;23.47;21.57;96846.03;1823275;78;21023;-63
2021/05/05 12:55:01;;;;;;;7.70;1.40;;;;;;;23.42;21.48;96842.36;1823031;78;22061;-62
2021/05/05 12:57:30;;;;;;;2.42;1.30;;;;;;;23.39;21.73;96834.98;1783936;80;21424;-64
2021/05/05 12:59:59;;;;;;;5.17;1.55;;;;;;;23.42;21.78;96835.53;1754023;81;21185;-65
2021/05/05 13:02:29;;;;;;;3.22;1.30;;;;;;;23.42;22.23;96834.95;1754054;81;21004;-67
2021/05/05 13:05:06;;;;;;;7.20;1.32;;;;;;;23.40;21.21;96828.33;1754000;81;21079;-64
2021/05/05 13:07:39;;;;;;;2.60;1.37;;;;;;;23.23;21.84;96823.72;1753935;81;21101;-62
2021/05/05 13:10:17;;;;;;;2.90;1.40;;;;;;;23.19;22.76;96821.03;1753897;81;21573;-63
2021/05/05 13:13:11;;;;;;;5.70;1.57;;;;;;;23.34;21.91;96827.18;1754584;81;21004;-65
2021/05/05 13:15:38;;;;;;;2.67;1.40;;;;;;;23.45;21.27;96820.48;1750778;81;21007;-66
2021/05/05 13:18:25;;;;;;;4.30;1.22;;;;;;;23.50;21.53;96817.91;1754720;81;20941;-66
2021/05/05 13:31:48;;;;;;;5.45;1.70;;;;;;;24.95;20.78;96786.49;1754829;81;20960;-66
2021/05/05 13:34:19;;;;;;;4.40;1.55;;;;;;;25.05;21.11;96782.05;1734597;81;21031;-65
2021/05/05 13:37:00;;;;;;;5.92;2.20;;;;;;;25.11;19.98;96789.98;1754676;81;21334;-64
2021/05/05 13:39:37;;;;;;;4.67;1.70;;;;;;;25.05;20.73;96777.36;1754608;81;21000;-65
2021/05/05 13:42:09;;;;;;;5.67;1.60;;;;;;;24.87;21.00;96776.06;1754646;81;21472;-63
2021/05/05 13:44:48;;;;;;;3.50;1.55;;;;;;;24.87;21.00;96776.06;1754658;81;21157;-63
2021/05/05 13:47:32;;;;;;;4.20;2.00;;;;;;;24.55;20.44;96775.66;1754665;81;21609;-65
2021/05/05 13:49:59;;;;;;;7.35;2.27;;;;;;;24.14;21.06;96771.05;1754539;81;21448;-67
2021/05/05 13:52:27;;;;;;;4.92;2.20;;;;;;;23.79;21.26;96770.79;1754523;81;20972;-63
2021/05/05 13:54:57;;;;;;;5.40;1.87;;;;;;;23.47;21.87;96772.26;1753967;81;20980;-64
2021/05/05 13:57:26;;;;;;;6.85;5.78;;;;;;;23.23;21.97;96771.83;1753836;81;21050;-63
2021/05/05 13:59:54;;;;;;;9.93;7.97;;;;;;;23.34;22.27;96769.20;1753435;81;21214;-66
2021/05/05 14:02:23;;;;;;;11.10;5.28;;;;;;;23.74;22.04;96773.20;1753371;81;21377;-67
2021/05/05 14:04:51;;;;;;;4.47;2.10;;;;;;;23.95;22.16;96770.84;1754413;81;21201;-62
2021/05/05 14:07:21;;;;;;;7.10;1.60;;;;;;;23.88;22.06;96768.97;1753679;81;21051;-65
2021/05/05 14:09:49;;;;;;;2.87;1.47;;;;;;;23.58;22.45;96767.47;1753353;81;21202;-64
2021/05/05 14:12:17;;;;;;;6.25;2.08;;;;;;;23.21;22.89;96765.98;1753460;81;21174;-67
2021/05/05 14:14:46;;;;;;;4.58;1.98;;;;;;;22.71;23.32;96762.21;1754294;81;21374;-64
2021/05/05 14:17:14;;;;;;;6.10;1.90;;;;;;;22.27;23.82;96760.05;1754550;81;20940;-66
2021/05/05 14:19:43;;;;;;;5.30;3.40;;;;;;;22.08;24.65;96761.08;1754605;81;20928;-65
2021/05/05 14:22:12;;;;;;;7.50;3.27;;;;;;;22.07;24.47;96756.82;1754537;81;20941;-64
2021/05/05 14:24:40;;;;;;;7.40;2.40;;;;;;;22.09;24.78;96759.31;1754622;81;20932;-66
2021/05/05 14:27:09;;;;;;;10.38;3.50;;;;;;;22.15;24.81;96752.30;1754573;81;21383;-66
2021/05/05 14:29:38;;;;;;;8.23;3.50;;;;;;;22.42;24.96;96756.69;1754545;81;21019;-67
